sensor_id;sensor_type;location;lat;lon;timestamp;P1;durP1;ratioP1;P2;durP2;ratioP2
82028;SDS011;71590;52.216;13.448;2023-12-07T00:02:10;16.67;;;14.80;;
82028;SDS011;71590;52.216;13.448;2023-12-07T00:04:38;16.77;;;14.03;;
82028;SDS011;71590;52.216;13.448;2023-12-07T00:07:05;16.60;;;14.37;;
82028;SDS011;71590;52.216;13.448;2023-12-07T00:09:31;18.67;;;15.77;;
82028;SDS011;71590;52.216;13.448;2023-12-07T00:11:58;16.67;;;14.97;;
82028;SDS011;71590;52.216;13.448;2023-12-07T00:14:24;16.77;;;14.20;;
82028;SDS011;71590;52.216;13.448;2023-12-07T00:16:51;18.37;;;14.90;;
82028;SDS011;71590;52.216;13.448;2023-12-07T00:19:17;17.83;;;14.63;;
82028;SDS011;71590;52.216;13.448;2023-12-07T00:21:44;18.37;;;15.67;;
82028;SDS011;71590;52.216;13.448;2023-12-07T00:24:10;16.80;;;14.73;;
82028;SDS011;71590;52.216;13.448;2023-12-07T00:26:37;19.67;;;15.60;;
82028;SDS011;71590;52.216;13.448;2023-12-07T00:29:04;17.37;;;15.07;;
82028;SDS011;71590;52.216;13.448;2023-12-07T00:31:30;16.80;;;14.73;;
82028;SDS011;71590;52.216;13.448;2023-12-07T00:33:57;16.93;;;15.13;;
82028;SDS011;71590;52.216;13.448;2023-12-07T00:36:24;17.90;;;15.73;;
82028;SDS011;71590;52.216;13.448;2023-12-07T00:38:51;21.17;;;17.07;;
82028;SDS011;71590;52.216;13.448;2023-12-07T00:41:17;18.03;;;15.80;;
82028;SDS011;71590;52.216;13.448;2023-12-07T00:43:44;18.20;;;16.27;;
82028;SDS011;71590;52.216;13.448;2023-12-07T00:46:10;18.57;;;15.97;;
82028;SDS011;71590;52.216;13.448;2023-12-07T00:48:37;16.97;;;15.13;;
82028;SDS011;71590;52.216;13.448;2023-12-07T00:51:04;18.10;;;15.47;;
82028;SDS011;71590;52.216;13.448;2023-12-07T00:53:32;18.67;;;16.17;;
82028;SDS011;71590;52.216;13.448;2023-12-07T00:55:59;17.53;;;15.63;;
82028;SDS011;71590;52.216;13.448;2023-12-07T00:58:25;18.83;;;16.37;;
82028;SDS011;71590;52.216;13.448;2023-12-07T01:00:52;19.57;;;15.93;;
82028;SDS011;71590;52.216;13.448;2023-12-07T01:03:18;20.80;;;17.00;;
82028;SDS011;71590;52.216;13.448;2023-12-07T01:05:45;17.63;;;15.77;;
82028;SDS011;71590;52.216;13.448;2023-12-07T01:08:12;17.57;;;15.47;;
82028;SDS011;71590;52.216;13.448;2023-12-07T01:10:38;18.53;;;15.77;;
82028;SDS011;71590;52.216;13.448;2023-12-07T01:13:05;18.97;;;16.60;;
82028;SDS011;71590;52.216;13.448;2023-12-07T01:15:32;18.27;;;16.27;;
82028;SDS011;71590;52.216;13.448;2023-12-07T01:17:58;19.83;;;17.43;;
82028;SDS011;71590;52.216;13.448;2023-12-07T01:20:25;19.23;;;16.63;;
82028;SDS011;71590;52.216;13.448;2023-12-07T01:22:51;21.37;;;17.47;;
82028;SDS011;71590;52.216;13.448;2023-12-07T01:25:18;18.10;;;16.10;;
82028;SDS011;71590;52.216;13.448;2023-12-07T01:27:48;19.77;;;16.40;;
82028;SDS011;71590;52.216;13.448;2023-12-07T01:30:15;20.53;;;17.43;;
82028;SDS011;71590;52.216;13.448;2023-12-07T01:32:43;20.03;;;16.70;;
82028;SDS011;71590;52.216;13.448;2023-12-07T01:35:10;19.87;;;17.33;;
82028;SDS011;71590;52.216;13.448;2023-12-07T01:37:36;18.60;;;16.60;;
82028;SDS011;71590;52.216;13.448;2023-12-07T01:40:03;19.03;;;16.13;;
82028;SDS011;71590;52.216;13.448;2023-12-07T01:42:32;18.47;;;16.57;;
82028;SDS011;71590;52.216;13.448;2023-12-07T01:44:58;21.67;;;17.87;;
82028;SDS011;71590;52.216;13.448;2023-12-07T01:47:25;19.17;;;17.07;;
82028;SDS011;71590;52.216;13.448;2023-12-07T01:49:52;19.93;;;17.30;;
82028;SDS011;71590;52.216;13.448;2023-12-07T01:52:19;19.13;;;16.80;;
82028;SDS011;71590;52.216;13.448;2023-12-07T01:54:48;20.30;;;16.87;;
82028;SDS011;71590;52.216;13.448;2023-12-07T01:57:15;20.83;;;17.73;;
82028;SDS011;71590;52.216;13.448;2023-12-07T01:59:41;22.73;;;17.70;;
82028;SDS011;71590;52.216;13.448;2023-12-07T02:02:08;20.57;;;17.20;;
82028;SDS011;71590;52.216;13.448;2023-12-07T02:04:35;20.73;;;17.27;;
82028;SDS011;71590;52.216;13.448;2023-12-07T02:07:01;19.73;;;17.30;;
82028;SDS011;71590;52.216;13.448;2023-12-07T02:09:30;21.27;;;18.60;;
82028;SDS011;71590;52.216;13.448;2023-12-07T02:11:56;20.57;;;16.97;;
82028;SDS011;71590;52.216;13.448;2023-12-07T02:14:23;21.10;;;16.80;;
82028;SDS011;71590;52.216;13.448;2023-12-07T02:16:56;20.17;;;16.47;;
82028;SDS011;71590;52.216;13.448;2023-12-07T02:22:12;20.73;;;16.53;;
82028;SDS011;71590;52.216;13.448;2023-12-07T02:24:43;21.03;;;17.43;;
82028;SDS011;71590;52.216;13.448;2023-12-07T02:27:14;19.77;;;16.37;;
82028;SDS011;71590;52.216;13.448;2023-12-07T02:29:40;21.07;;;17.50;;
82028;SDS011;71590;52.216;13.448;2023-12-07T02:32:07;21.40;;;17.00;;
82028;SDS011;71590;52.216;13.448;2023-12-07T02:34:33;19.43;;;16.17;;
82028;SDS011;71590;52.216;13.448;2023-12-07T02:37:00;19.73;;;17.03;;
82028;SDS011;71590;52.216;13.448;2023-12-07T02:39:28;20.87;;;17.70;;
82028;SDS011;71590;52.216;13.448;2023-12-07T02:41:54;19.53;;;16.93;;
82028;SDS011;71590;52.216;13.448;2023-12-07T02:44:22;21.63;;;16.40;;
82028;SDS011;71590;52.216;13.448;2023-12-07T02:46:48;24.13;;;18.40;;
82028;SDS011;71590;52.216;13.448;2023-12-07T02:49:16;23.90;;;18.53;;
82028;SDS011;71590;52.216;13.448;2023-12-07T02:51:43;21.07;;;17.17;;
82028;SDS011;71590;52.216;13.448;2023-12-07T02:54:09;21.53;;;17.23;;
82028;SDS011;71590;52.216;13.448;2023-12-07T02:56:36;21.87;;;18.60;;
82028;SDS011;71590;52.216;13.448;2023-12-07T02:59:02;20.10;;;16.83;;
82028;SDS011;71590;52.216;13.448;2023-12-07T03:01:28;20.93;;;17.63;;
82028;SDS011;71590;52.216;13.448;2023-12-07T03:03:55;21.30;;;18.03;;
82028;SDS011;71590;52.216;13.448;2023-12-07T03:06:21;19.67;;;16.80;;
82028;SDS011;71590;52.216;13.448;2023-12-07T03:08:48;20.43;;;17.67;;
82028;SDS011;71590;52.216;13.448;2023-12-07T03:11:14;20.47;;;17.77;;
82028;SDS011;71590;52.216;13.448;2023-12-07T03:13:41;20.30;;;17.20;;
82028;SDS011;71590;52.216;13.448;2023-12-07T03:16:08;22.13;;;18.40;;
82028;SDS011;71590;52.216;13.448;2023-12-07T03:18:35;21.57;;;17.87;;
82028;SDS011;71590;52.216;13.448;2023-12-07T03:21:02;20.90;;;18.03;;
82028;SDS011;71590;52.216;13.448;2023-12-07T03:23:29;22.60;;;18.03;;
82028;SDS011;71590;52.216;13.448;2023-12-07T03:25:56;19.63;;;17.30;;
82028;SDS011;71590;52.216;13.448;2023-12-07T03:28:22;22.93;;;18.97;;
82028;SDS011;71590;52.216;13.448;2023-12-07T03:30:49;21.33;;;17.17;;
82028;SDS011;71590;52.216;13.448;2023-12-07T03:33:15;19.90;;;17.00;;
82028;SDS011;71590;52.216;13.448;2023-12-07T03:35:42;20.40;;;16.97;;
82028;SDS011;71590;52.216;13.448;2023-12-07T03:38:08;21.63;;;18.83;;
82028;SDS011;71590;52.216;13.448;2023-12-07T03:40:35;20.70;;;17.93;;
82028;SDS011;71590;52.216;13.448;2023-12-07T03:43:01;20.87;;;16.87;;
82028;SDS011;71590;52.216;13.448;2023-12-07T03:45:31;21.50;;;17.20;;
82028;SDS011;71590;52.216;13.448;2023-12-07T03:47:57;19.53;;;17.13;;
82028;SDS011;71590;52.216;13.448;2023-12-07T03:50:24;20.77;;;18.50;;
82028;SDS011;71590;52.216;13.448;2023-12-07T03:52:50;22.33;;;18.47;;
82028;SDS011;71590;52.216;13.448;2023-12-07T03:55:17;22.33;;;17.57;;
82028;SDS011;71590;52.216;13.448;2023-12-07T03:57:43;20.70;;;17.57;;
82028;SDS011;71590;52.216;13.448;2023-12-07T04:00:10;21.23;;;18.13;;
82028;SDS011;71590;52.216;13.448;2023-12-07T04:02:37;20.03;;;16.90;;
82028;SDS011;71590;52.216;13.448;2023-12-07T04:05:03;21.63;;;17.73;;
82028;SDS011;71590;52.216;13.448;2023-12-07T04:07:30;22.50;;;17.73;;
82028;SDS011;71590;52.216;13.448;2023-12-07T04:09:56;24.00;;;18.87;;
82028;SDS011;71590;52.216;13.448;2023-12-07T04:12:23;20.77;;;17.83;;
82028;SDS011;71590;52.216;13.448;2023-12-07T04:14:50;23.03;;;18.57;;
82028;SDS011;71590;52.216;13.448;2023-12-07T04:17:17;21.73;;;16.87;;
82028;SDS011;71590;52.216;13.448;2023-12-07T04:19:44;20.80;;;17.70;;
82028;SDS011;71590;52.216;13.448;2023-12-07T04:22:10;22.17;;;17.67;;
82028;SDS011;71590;52.216;13.448;2023-12-07T04:24:37;19.93;;;17.50;;
82028;SDS011;71590;52.216;13.448;2023-12-07T04:27:03;20.93;;;17.83;;
82028;SDS011;71590;52.216;13.448;2023-12-07T04:29:30;22.40;;;19.37;;
82028;SDS011;71590;52.216;13.448;2023-12-07T04:31:56;22.13;;;18.93;;
82028;SDS011;71590;52.216;13.448;2023-12-07T04:34:23;23.37;;;18.30;;
82028;SDS011;71590;52.216;13.448;2023-12-07T04:36:49;23.57;;;19.13;;
82028;SDS011;71590;52.216;13.448;2023-12-07T04:39:16;22.67;;;18.83;;
82028;SDS011;71590;52.216;13.448;2023-12-07T04:41:42;23.67;;;18.80;;
82028;SDS011;71590;52.216;13.448;2023-12-07T04:44:09;24.20;;;19.33;;
82028;SDS011;71590;52.216;13.448;2023-12-07T04:46:36;22.30;;;18.37;;
82028;SDS011;71590;52.216;13.448;2023-12-07T04:49:02;23.67;;;18.10;;
82028;SDS011;71590;52.216;13.448;2023-12-07T04:51:29;25.17;;;19.17;;
82028;SDS011;71590;52.216;13.448;2023-12-07T04:53:56;24.83;;;18.30;;
82028;SDS011;71590;52.216;13.448;2023-12-07T04:56:39;24.07;;;20.23;;
82028;SDS011;71590;52.216;13.448;2023-12-07T04:59:05;22.73;;;17.67;;
82028;SDS011;71590;52.216;13.448;2023-12-07T05:01:32;24.93;;;18.83;;
82028;SDS011;71590;52.216;13.448;2023-12-07T05:03:58;27.77;;;18.80;;
82028;SDS011;71590;52.216;13.448;2023-12-07T05:06:25;29.40;;;19.67;;
82028;SDS011;71590;52.216;13.448;2023-12-07T05:08:51;25.67;;;17.90;;
82028;SDS011;71590;52.216;13.448;2023-12-07T05:11:17;27.60;;;19.70;;
82028;SDS011;71590;52.216;13.448;2023-12-07T05:13:44;28.27;;;18.13;;
82028;SDS011;71590;52.216;13.448;2023-12-07T05:16:10;31.03;;;20.47;;
82028;SDS011;71590;52.216;13.448;2023-12-07T05:18:37;30.67;;;20.87;;
82028;SDS011;71590;52.216;13.448;2023-12-07T05:21:04;30.43;;;19.37;;
82028;SDS011;71590;52.216;13.448;2023-12-07T05:23:31;27.80;;;18.77;;
82028;SDS011;71590;52.216;13.448;2023-12-07T05:25:57;29.83;;;19.97;;
82028;SDS011;71590;52.216;13.448;2023-12-07T05:28:24;30.13;;;20.60;;
82028;SDS011;71590;52.216;13.448;2023-12-07T05:30:52;33.27;;;21.50;;
82028;SDS011;71590;52.216;13.448;2023-12-07T05:33:18;26.53;;;18.53;;
82028;SDS011;71590;52.216;13.448;2023-12-07T05:35:45;27.70;;;20.90;;
82028;SDS011;71590;52.216;13.448;2023-12-07T05:38:12;30.10;;;19.77;;
82028;SDS011;71590;52.216;13.448;2023-12-07T05:40:38;30.07;;;19.47;;
82028;SDS011;71590;52.216;13.448;2023-12-07T05:43:05;32.63;;;19.93;;
82028;SDS011;71590;52.216;13.448;2023-12-07T05:45:31;27.10;;;19.67;;
82028;SDS011;71590;52.216;13.448;2023-12-07T05:47:58;30.20;;;19.87;;
82028;SDS011;71590;52.216;13.448;2023-12-07T05:50:24;34.87;;;22.50;;
82028;SDS011;71590;52.216;13.448;2023-12-07T05:52:51;31.17;;;21.60;;
82028;SDS011;71590;52.216;13.448;2023-12-07T05:55:17;32.43;;;20.40;;
82028;SDS011;71590;52.216;13.448;2023-12-07T05:57:47;30.27;;;20.23;;
82028;SDS011;71590;52.216;13.448;2023-12-07T06:00:13;28.77;;;21.63;;
82028;SDS011;71590;52.216;13.448;2023-12-07T06:02:40;33.83;;;22.67;;
82028;SDS011;71590;52.216;13.448;2023-12-07T06:05:06;37.17;;;26.03;;
82028;SDS011;71590;52.216;13.448;2023-12-07T06:07:33;31.83;;;22.80;;
82028;SDS011;71590;52.216;13.448;2023-12-07T06:10:00;34.17;;;23.43;;
82028;SDS011;71590;52.216;13.448;2023-12-07T06:12:26;37.07;;;24.17;;
82028;SDS011;71590;52.216;13.448;2023-12-07T06:14:56;31.87;;;21.53;;
82028;SDS011;71590;52.216;13.448;2023-12-07T06:17:22;30.37;;;20.13;;
82028;SDS011;71590;52.216;13.448;2023-12-07T06:19:49;38.30;;;23.33;;
82028;SDS011;71590;52.216;13.448;2023-12-07T06:22:15;29.00;;;20.23;;
82028;SDS011;71590;52.216;13.448;2023-12-07T06:24:42;28.83;;;20.00;;
82028;SDS011;71590;52.216;13.448;2023-12-07T06:27:08;33.80;;;23.03;;
82028;SDS011;71590;52.216;13.448;2023-12-07T06:29:36;36.43;;;22.20;;
82028;SDS011;71590;52.216;13.448;2023-12-07T06:32:02;37.67;;;23.63;;
82028;SDS011;71590;52.216;13.448;2023-12-07T06:34:29;36.87;;;22.77;;
82028;SDS011;71590;52.216;13.448;2023-12-07T06:36:57;33.73;;;22.40;;
82028;SDS011;71590;52.216;13.448;2023-12-07T06:39:23;33.33;;;23.23;;
82028;SDS011;71590;52.216;13.448;2023-12-07T06:41:50;35.30;;;22.03;;
82028;SDS011;71590;52.216;13.448;2023-12-07T06:44:16;47.87;;;30.13;;
82028;SDS011;71590;52.216;13.448;2023-12-07T06:46:43;136.93;;;81.53;;
82028;SDS011;71590;52.216;13.448;2023-12-07T06:49:09;80.60;;;51.47;;
82028;SDS011;71590;52.216;13.448;2023-12-07T06:51:39;48.13;;;39.07;;
82028;SDS011;71590;52.216;13.448;2023-12-07T06:54:05;40.03;;;27.60;;
82028;SDS011;71590;52.216;13.448;2023-12-07T06:56:32;35.47;;;24.17;;
82028;SDS011;71590;52.216;13.448;2023-12-07T06:58:59;35.33;;;22.77;;
82028;SDS011;71590;52.216;13.448;2023-12-07T07:01:25;35.43;;;23.00;;
82028;SDS011;71590;52.216;13.448;2023-12-07T07:03:52;33.37;;;23.23;;
82028;SDS011;71590;52.216;13.448;2023-12-07T07:06:19;34.13;;;23.63;;
82028;SDS011;71590;52.216;13.448;2023-12-07T07:08:45;41.80;;;26.30;;
82028;SDS011;71590;52.216;13.448;2023-12-07T07:11:12;37.97;;;24.50;;
82028;SDS011;71590;52.216;13.448;2023-12-07T07:13:39;34.93;;;23.77;;
82028;SDS011;71590;52.216;13.448;2023-12-07T07:16:06;34.73;;;24.37;;
82028;SDS011;71590;52.216;13.448;2023-12-07T07:18:35;34.83;;;24.30;;
82028;SDS011;71590;52.216;13.448;2023-12-07T07:21:01;33.10;;;24.13;;
82028;SDS011;71590;52.216;13.448;2023-12-07T07:23:30;36.93;;;24.40;;
82028;SDS011;71590;52.216;13.448;2023-12-07T07:25:56;35.10;;;24.70;;
82028;SDS011;71590;52.216;13.448;2023-12-07T07:28:23;37.03;;;24.40;;
82028;SDS011;71590;52.216;13.448;2023-12-07T07:30:49;39.90;;;25.80;;
82028;SDS011;71590;52.216;13.448;2023-12-07T07:33:17;34.87;;;24.13;;
82028;SDS011;71590;52.216;13.448;2023-12-07T07:35:44;34.00;;;22.90;;
82028;SDS011;71590;52.216;13.448;2023-12-07T07:38:10;37.33;;;24.70;;
82028;SDS011;71590;52.216;13.448;2023-12-07T07:40:37;34.83;;;24.23;;
82028;SDS011;71590;52.216;13.448;2023-12-07T07:43:04;35.37;;;23.37;;
82028;SDS011;71590;52.216;13.448;2023-12-07T07:45:31;32.67;;;22.43;;
82028;SDS011;71590;52.216;13.448;2023-12-07T07:47:57;38.90;;;24.97;;
82028;SDS011;71590;52.216;13.448;2023-12-07T07:50:24;39.00;;;24.50;;
82028;SDS011;71590;52.216;13.448;2023-12-07T07:52:50;34.60;;;24.63;;
82028;SDS011;71590;52.216;13.448;2023-12-07T07:55:17;40.70;;;26.03;;
82028;SDS011;71590;52.216;13.448;2023-12-07T07:57:44;38.10;;;24.63;;
82028;SDS011;71590;52.216;13.448;2023-12-07T08:00:10;34.67;;;24.53;;
82028;SDS011;71590;52.216;13.448;2023-12-07T08:02:39;36.07;;;24.83;;
82028;SDS011;71590;52.216;13.448;2023-12-07T08:05:05;38.63;;;25.07;;
82028;SDS011;71590;52.216;13.448;2023-12-07T08:07:32;43.73;;;27.73;;
82028;SDS011;71590;52.216;13.448;2023-12-07T08:09:59;36.90;;;25.77;;
82028;SDS011;71590;52.216;13.448;2023-12-07T08:12:26;37.40;;;24.87;;
82028;SDS011;71590;52.216;13.448;2023-12-07T08:14:52;37.97;;;24.77;;
82028;SDS011;71590;52.216;13.448;2023-12-07T08:17:21;36.47;;;24.50;;
82028;SDS011;71590;52.216;13.448;2023-12-07T08:19:48;35.90;;;25.47;;
82028;SDS011;71590;52.216;13.448;2023-12-07T08:22:15;36.70;;;24.80;;
82028;SDS011;71590;52.216;13.448;2023-12-07T08:24:42;41.37;;;26.90;;
82028;SDS011;71590;52.216;13.448;2023-12-07T08:27:10;39.07;;;25.63;;
82028;SDS011;71590;52.216;13.448;2023-12-07T08:29:37;38.30;;;26.03;;
82028;SDS011;71590;52.216;13.448;2023-12-07T08:32:03;37.77;;;26.33;;
82028;SDS011;71590;52.216;13.448;2023-12-07T08:34:30;40.67;;;26.70;;
82028;SDS011;71590;52.216;13.448;2023-12-07T08:36:56;37.77;;;25.83;;
82028;SDS011;71590;52.216;13.448;2023-12-07T08:39:23;37.57;;;25.13;;
82028;SDS011;71590;52.216;13.448;2023-12-07T08:41:51;39.83;;;24.17;;
82028;SDS011;71590;52.216;13.448;2023-12-07T08:44:18;40.33;;;24.03;;
82028;SDS011;71590;52.216;13.448;2023-12-07T08:46:45;35.97;;;23.43;;
82028;SDS011;71590;52.216;13.448;2023-12-07T08:49:12;42.03;;;26.07;;
82028;SDS011;71590;52.216;13.448;2023-12-07T08:51:39;43.40;;;28.00;;
82028;SDS011;71590;52.216;13.448;2023-12-07T08:54:25;46.97;;;27.37;;
82028;SDS011;71590;52.216;13.448;2023-12-07T08:56:52;43.20;;;26.87;;
82028;SDS011;71590;52.216;13.448;2023-12-07T08:59:18;40.57;;;26.40;;
82028;SDS011;71590;52.216;13.448;2023-12-07T09:01:46;40.53;;;26.53;;
82028;SDS011;71590;52.216;13.448;2023-12-07T09:04:13;38.43;;;25.40;;
82028;SDS011;71590;52.216;13.448;2023-12-07T09:06:39;42.97;;;25.97;;
82028;SDS011;71590;52.216;13.448;2023-12-07T09:09:06;36.97;;;23.97;;
82028;SDS011;71590;52.216;13.448;2023-12-07T09:11:33;40.63;;;26.10;;
82028;SDS011;71590;52.216;13.448;2023-12-07T09:13:59;37.37;;;25.40;;
82028;SDS011;71590;52.216;13.448;2023-12-07T09:16:27;33.80;;;23.73;;
82028;SDS011;71590;52.216;13.448;2023-12-07T09:18:54;36.70;;;24.37;;
82028;SDS011;71590;52.216;13.448;2023-12-07T09:21:20;39.97;;;26.03;;
82028;SDS011;71590;52.216;13.448;2023-12-07T09:23:47;37.37;;;23.67;;
82028;SDS011;71590;52.216;13.448;2023-12-07T09:26:13;36.63;;;25.47;;
82028;SDS011;71590;52.216;13.448;2023-12-07T09:28:40;37.20;;;23.73;;
82028;SDS011;71590;52.216;13.448;2023-12-07T09:31:06;35.13;;;23.80;;
82028;SDS011;71590;52.216;13.448;2023-12-07T09:33:33;39.03;;;24.23;;
82028;SDS011;71590;52.216;13.448;2023-12-07T09:36:00;33.60;;;24.17;;
82028;SDS011;71590;52.216;13.448;2023-12-07T09:38:27;31.60;;;22.30;;
82028;SDS011;71590;52.216;13.448;2023-12-07T09:40:53;33.80;;;23.13;;
82028;SDS011;71590;52.216;13.448;2023-12-07T09:43:20;34.13;;;22.40;;
82028;SDS011;71590;52.216;13.448;2023-12-07T09:45:47;36.20;;;24.47;;
82028;SDS011;71590;52.216;13.448;2023-12-07T09:48:13;33.27;;;24.23;;
82028;SDS011;71590;52.216;13.448;2023-12-07T09:50:42;36.80;;;24.27;;
82028;SDS011;71590;52.216;13.448;2023-12-07T09:53:08;34.33;;;24.13;;
82028;SDS011;71590;52.216;13.448;2023-12-07T09:55:35;38.37;;;24.50;;
82028;SDS011;71590;52.216;13.448;2023-12-07T09:58:04;35.77;;;23.00;;
82028;SDS011;71590;52.216;13.448;2023-12-07T10:00:32;36.63;;;24.57;;
82028;SDS011;71590;52.216;13.448;2023-12-07T10:03:00;39.87;;;26.63;;
82028;SDS011;71590;52.216;13.448;2023-12-07T10:05:26;38.43;;;25.97;;
82028;SDS011;71590;52.216;13.448;2023-12-07T10:07:53;36.83;;;26.47;;
82028;SDS011;71590;52.216;13.448;2023-12-07T10:10:19;38.63;;;25.53;;
82028;SDS011;71590;52.216;13.448;2023-12-07T10:12:53;39.33;;;25.80;;
82028;SDS011;71590;52.216;13.448;2023-12-07T10:15:20;40.73;;;26.30;;
82028;SDS011;71590;52.216;13.448;2023-12-07T10:17:48;38.10;;;23.60;;
82028;SDS011;71590;52.216;13.448;2023-12-07T10:20:18;36.77;;;25.83;;
82028;SDS011;71590;52.216;13.448;2023-12-07T10:22:45;37.10;;;25.97;;
82028;SDS011;71590;52.216;13.448;2023-12-07T10:25:12;36.03;;;24.27;;
82028;SDS011;71590;52.216;13.448;2023-12-07T10:27:42;39.50;;;25.33;;
82028;SDS011;71590;52.216;13.448;2023-12-07T10:30:11;37.43;;;24.27;;
82028;SDS011;71590;52.216;13.448;2023-12-07T10:32:38;36.40;;;25.13;;
82028;SDS011;71590;52.216;13.448;2023-12-07T10:35:06;39.27;;;25.97;;
82028;SDS011;71590;52.216;13.448;2023-12-07T10:37:33;37.13;;;24.93;;
82028;SDS011;71590;52.216;13.448;2023-12-07T10:39:59;37.13;;;24.80;;
82028;SDS011;71590;52.216;13.448;2023-12-07T10:42:26;38.13;;;25.57;;
82028;SDS011;71590;52.216;13.448;2023-12-07T10:44:55;39.27;;;26.13;;
82028;SDS011;71590;52.216;13.448;2023-12-07T10:47:24;39.93;;;25.03;;
82028;SDS011;71590;52.216;13.448;2023-12-07T10:49:52;40.73;;;25.40;;
82028;SDS011;71590;52.216;13.448;2023-12-07T10:52:19;39.00;;;25.10;;
82028;SDS011;71590;52.216;13.448;2023-12-07T10:54:54;41.63;;;26.13;;
82028;SDS011;71590;52.216;13.448;2023-12-07T10:57:22;37.33;;;24.23;;
82028;SDS011;71590;52.216;13.448;2023-12-07T10:59:49;37.27;;;25.13;;
82028;SDS011;71590;52.216;13.448;2023-12-07T11:02:16;37.90;;;24.23;;
82028;SDS011;71590;52.216;13.448;2023-12-07T11:04:47;39.37;;;26.20;;
82028;SDS011;71590;52.216;13.448;2023-12-07T11:07:14;35.60;;;24.07;;
82028;SDS011;71590;52.216;13.448;2023-12-07T11:09:45;35.40;;;25.20;;
82028;SDS011;71590;52.216;13.448;2023-12-07T11:12:17;39.03;;;25.73;;
82028;SDS011;71590;52.216;13.448;2023-12-07T11:14:45;37.00;;;24.80;;
82028;SDS011;71590;52.216;13.448;2023-12-07T11:17:11;36.30;;;24.43;;
82028;SDS011;71590;52.216;13.448;2023-12-07T11:22:10;39.50;;;26.03;;
82028;SDS011;71590;52.216;13.448;2023-12-07T11:24:39;34.90;;;24.67;;
82028;SDS011;71590;52.216;13.448;2023-12-07T11:27:17;41.10;;;26.00;;
82028;SDS011;71590;52.216;13.448;2023-12-07T11:29:45;35.53;;;24.30;;
82028;SDS011;71590;52.216;13.448;2023-12-07T11:32:12;41.00;;;27.17;;
82028;SDS011;71590;52.216;13.448;2023-12-07T11:34:47;38.37;;;25.20;;
82028;SDS011;71590;52.216;13.448;2023-12-07T11:37:15;37.90;;;25.13;;
82028;SDS011;71590;52.216;13.448;2023-12-07T11:39:45;35.07;;;24.00;;
82028;SDS011;71590;52.216;13.448;2023-12-07T11:42:15;41.83;;;25.57;;
82028;SDS011;71590;52.216;13.448;2023-12-07T11:44:42;39.67;;;25.43;;
82028;SDS011;71590;52.216;13.448;2023-12-07T11:47:10;40.50;;;25.17;;
82028;SDS011;71590;52.216;13.448;2023-12-07T11:49:43;40.70;;;25.97;;
82028;SDS011;71590;52.216;13.448;2023-12-07T11:52:14;37.37;;;25.07;;
82028;SDS011;71590;52.216;13.448;2023-12-07T11:54:44;40.13;;;25.80;;
82028;SDS011;71590;52.216;13.448;2023-12-07T11:57:11;42.77;;;27.40;;
82028;SDS011;71590;52.216;13.448;2023-12-07T11:59:38;42.27;;;26.20;;
82028;SDS011;71590;52.216;13.448;2023-12-07T12:02:05;43.37;;;27.10;;
82028;SDS011;71590;52.216;13.448;2023-12-07T12:04:33;41.73;;;26.47;;
82028;SDS011;71590;52.216;13.448;2023-12-07T12:07:00;44.33;;;28.30;;
82028;SDS011;71590;52.216;13.448;2023-12-07T12:09:27;41.53;;;27.33;;
82028;SDS011;71590;52.216;13.448;2023-12-07T12:11:59;43.33;;;27.47;;
82028;SDS011;71590;52.216;13.448;2023-12-07T12:14:28;42.40;;;26.93;;
82028;SDS011;71590;52.216;13.448;2023-12-07T12:16:55;40.63;;;26.20;;
82028;SDS011;71590;52.216;13.448;2023-12-07T12:19:22;41.93;;;26.50;;
82028;SDS011;71590;52.216;13.448;2023-12-07T12:22:00;46.37;;;28.57;;
82028;SDS011;71590;52.216;13.448;2023-12-07T12:24:29;45.23;;;28.03;;
82028;SDS011;71590;52.216;13.448;2023-12-07T12:26:57;40.47;;;26.90;;
82028;SDS011;71590;52.216;13.448;2023-12-07T12:29:24;43.93;;;28.30;;
82028;SDS011;71590;52.216;13.448;2023-12-07T12:31:59;42.73;;;26.60;;
82028;SDS011;71590;52.216;13.448;2023-12-07T12:34:26;48.30;;;27.73;;
82028;SDS011;71590;52.216;13.448;2023-12-07T12:36:55;53.23;;;31.80;;
82028;SDS011;71590;52.216;13.448;2023-12-07T12:39:26;43.70;;;28.13;;
82028;SDS011;71590;52.216;13.448;2023-12-07T12:41:59;44.17;;;27.17;;
82028;SDS011;71590;52.216;13.448;2023-12-07T12:44:27;39.87;;;25.87;;
82028;SDS011;71590;52.216;13.448;2023-12-07T12:47:02;44.47;;;28.33;;
82028;SDS011;71590;52.216;13.448;2023-12-07T12:49:36;40.70;;;25.90;;
82028;SDS011;71590;52.216;13.448;2023-12-07T12:52:03;39.80;;;23.97;;
82028;SDS011;71590;52.216;13.448;2023-12-07T12:54:31;35.20;;;23.13;;
82028;SDS011;71590;52.216;13.448;2023-12-07T12:56:58;37.23;;;23.67;;
82028;SDS011;71590;52.216;13.448;2023-12-07T12:59:25;29.93;;;19.80;;
82028;SDS011;71590;52.216;13.448;2023-12-07T13:01:52;26.17;;;18.43;;
82028;SDS011;71590;52.216;13.448;2023-12-07T13:04:18;27.10;;;18.73;;
82028;SDS011;71590;52.216;13.448;2023-12-07T13:06:46;29.33;;;20.47;;
82028;SDS011;71590;52.216;13.448;2023-12-07T13:09:13;32.67;;;21.33;;
82028;SDS011;71590;52.216;13.448;2023-12-07T13:11:39;36.33;;;22.23;;
82028;SDS011;71590;52.216;13.448;2023-12-07T13:14:06;30.20;;;20.50;;
82028;SDS011;71590;52.216;13.448;2023-12-07T13:16:34;36.70;;;21.97;;
82028;SDS011;71590;52.216;13.448;2023-12-07T13:19:01;42.07;;;25.63;;
82028;SDS011;71590;52.216;13.448;2023-12-07T13:21:27;35.20;;;22.10;;
82028;SDS011;71590;52.216;13.448;2023-12-07T13:23:54;37.53;;;23.50;;
82028;SDS011;71590;52.216;13.448;2023-12-07T13:26:20;33.43;;;22.37;;
82028;SDS011;71590;52.216;13.448;2023-12-07T13:28:49;36.93;;;23.13;;
82028;SDS011;71590;52.216;13.448;2023-12-07T13:31:16;32.83;;;22.47;;
82028;SDS011;71590;52.216;13.448;2023-12-07T13:33:42;39.80;;;25.27;;
82028;SDS011;71590;52.216;13.448;2023-12-07T13:36:21;47.80;;;27.33;;
82028;SDS011;71590;52.216;13.448;2023-12-07T13:38:49;40.53;;;24.23;;
82028;SDS011;71590;52.216;13.448;2023-12-07T13:41:16;35.77;;;24.43;;
82028;SDS011;71590;52.216;13.448;2023-12-07T13:43:42;39.63;;;26.07;;
82028;SDS011;71590;52.216;13.448;2023-12-07T13:46:09;46.67;;;27.73;;
82028;SDS011;71590;52.216;13.448;2023-12-07T13:48:37;36.27;;;23.23;;
82028;SDS011;71590;52.216;13.448;2023-12-07T13:51:03;40.00;;;24.40;;
82028;SDS011;71590;52.216;13.448;2023-12-07T13:53:30;40.27;;;24.80;;
82028;SDS011;71590;52.216;13.448;2023-12-07T13:55:57;39.83;;;23.13;;
82028;SDS011;71590;52.216;13.448;2023-12-07T13:58:23;38.77;;;23.77;;
82028;SDS011;71590;52.216;13.448;2023-12-07T14:00:50;42.13;;;25.43;;
82028;SDS011;71590;52.216;13.448;2023-12-07T14:03:17;39.00;;;24.37;;
82028;SDS011;71590;52.216;13.448;2023-12-07T14:05:43;38.47;;;25.13;;
82028;SDS011;71590;52.216;13.448;2023-12-07T14:08:12;42.57;;;27.37;;
82028;SDS011;71590;52.216;13.448;2023-12-07T14:10:38;40.53;;;29.17;;
82028;SDS011;71590;52.216;13.448;2023-12-07T14:13:05;38.73;;;25.43;;
82028;SDS011;71590;52.216;13.448;2023-12-07T14:15:34;41.67;;;25.93;;